Time,TemperatureF,DewpointF,PressureIn,WindDirection,WindDirectionDegrees,WindSpeedMPH,WindSpeedGustMPH,Humidity,HourlyPrecipIn,Conditions,Clouds,dailyrainin,SoftwareType,DateUTC
2013-11-24 00:03:00,7.1,-2.2,30.58,SSE,156,4.0,11.0,65,0.00,,CLR,0.00,VWS V14.00,2013-11-24 06:03:00,
2013-11-24 00:08:00,7.2,-2.1,30.58,SSE,149,3.0,11.0,65,0.00,,CLR,0.00,VWS V14.00,2013-11-24 06:08:00,
2013-11-24 00:13:00,7.2,-1.8,30.58,SSE,155,7.0,11.0,66,0.00,,CLR,0.00,VWS V14.00,2013-11-24 06:13:00,
2013-11-24 00:18:00,7.3,-2.0,30.57,SSE,151,2.0,12.0,65,0.00,,CLR,0.00,VWS V14.00,2013-11-24 06:18:00,
2013-11-24 00:23:00,7.3,-2.0,30.56,SSE,164,7.0,12.0,65,0.00,,CLR,0.00,VWS V14.00,2013-11-24 06:23:00,
2013-11-24 00:28:00,7.4,-1.6,30.55,SSE,152,9.0,13.0,66,0.00,,CLR,0.00,VWS V14.00,2013-11-24 06:28:00,
2013-11-24 00:33:00,7.4,-1.9,30.55,SSE,160,3.0,10.0,65,0.00,,CLR,0.00,VWS V14.00,2013-11-24 06:33:00,
2013-11-24 00:38:00,7.4,-1.9,30.54,SSE,159,7.0,10.0,65,0.00,,CLR,0.00,VWS V14.00,2013-11-24 06:38:00,
2013-11-24 00:43:00,7.5,-1.8,30.53,SSE,154,7.0,14.0,65,0.00,,CLR,0.00,VWS V14.00,2013-11-24 06:43:00,
2013-11-24 00:48:00,7.7,-1.6,30.53,SSE,159,5.0,14.0,65,0.00,,CLR,0.00,VWS V14.00,2013-11-24 06:48:00,
2013-11-24 00:53:00,7.8,-1.5,30.54,SSE,157,8.0,13.0,65,0.00,,CLR,0.00,VWS V14.00,2013-11-24 06:53:00,
2013-11-24 00:59:00,7.7,-1.6,30.54,SSE,163,6.0,13.0,65,0.00,,CLR,0.00,VWS V14.00,2013-11-24 06:59:00,
2013-11-24 01:04:00,7.8,-1.5,30.53,South,172,5.0,9.0,65,0.00,,CLR,0.00,VWS V14.00,2013-11-24 07:04:00,
2013-11-24 01:09:00,7.8,-1.5,30.52,SE,143,3.0,12.0,65,0.00,,CLR,0.00,VWS V14.00,2013-11-24 07:09:00,
2013-11-24 01:14:00,7.8,-1.5,30.52,SSE,160,1.0,10.0,65,0.00,,CLR,0.00,VWS V14.00,2013-11-24 07:14:00,
2013-11-24 01:19:00,7.8,-1.5,30.51,SSE,157,2.0,10.0,65,0.00,,CLR,0.00,VWS V14.00,2013-11-24 07:19:00,
2013-11-24 01:24:00,7.8,-1.5,30.51,SSE,165,7.0,10.0,65,0.00,,CLR,0.00,VWS V14.00,2013-11-24 07:24:00,
2013-11-24 01:29:00,7.8,-1.5,30.51,SSE,163,6.0,12.0,65,0.00,,CLR,0.00,VWS V14.00,2013-11-24 07:29:00,
2013-11-24 01:34:00,7.8,-1.5,30.51,SSE,157,3.0,14.0,65,0.00,,CLR,0.00,VWS V14.00,2013-11-24 07:34:00,
2013-11-24 01:39:00,7.9,-1.4,30.50,SSE,161,4.0,14.0,65,0.00,,CLR,0.00,VWS V14.00,2013-11-24 07:39:00,
2013-11-24 01:44:00,7.9,-1.4,30.49,SSE,168,3.0,7.0,65,0.00,,CLR,0.00,VWS V14.00,2013-11-24 07:44:00,
2013-11-24 01:49:00,7.9,-1.4,30.49,South,169,0.0,11.0,65,0.00,,CLR,0.00,VWS V14.00,2013-11-24 07:49:00,
2013-11-24 01:54:00,7.9,-1.4,30.49,SSE,165,6.0,13.0,65,0.00,,CLR,0.00,VWS V14.00,2013-11-24 07:54:00,
2013-11-24 01:59:00,8.0,-1.3,30.49,SSE,157,2.0,13.0,65,0.00,,CLR,0.00,VWS V14.00,2013-11-24 07:59:00,
2013-11-24 02:04:00,8.0,-1.3,30.49,SSE,165,4.0,14.0,65,0.00,,CLR,0.00,VWS V14.00,2013-11-24 08:04:00,
2013-11-24 02:09:00,8.0,-1.3,30.48,SSE,149,10.0,14.0,65,0.00,,CLR,0.00,VWS V14.00,2013-11-24 08:09:00,
2013-11-24 02:14:00,8.0,-1.3,30.48,SSE,158,8.0,10.0,65,0.00,,CLR,0.00,VWS V14.00,2013-11-24 08:14:00,
2013-11-24 02:19:00,8.1,-1.2,30.47,SSE,161,6.0,10.0,65,0.00,,CLR,0.00,VWS V14.00,2013-11-24 08:19:00,
2013-11-24 02:24:00,8.1,-1.2,30.47,SSE,159,4.0,12.0,65,0.00,,CLR,0.00,VWS V14.00,2013-11-24 08:24:00,
2013-11-24 02:29:00,8.1,-1.2,30.47,SSE,160,8.0,12.0,65,0.00,,CLR,0.00,VWS V14.00,2013-11-24 08:29:00,
2013-11-24 02:34:00,8.1,-1.2,30.46,SSE,156,8.0,11.0,65,0.00,,CLR,0.00,VWS V14.00,2013-11-24 08:34:00,
2013-11-24 02:39:00,8.2,-1.1,30.46,SSE,158,8.0,12.0,65,0.00,,CLR,0.00,VWS V14.00,2013-11-24 08:39:00,
2013-11-24 02:44:00,8.2,-1.1,30.45,SSE,161,7.0,12.0,65,0.00,,CLR,0.00,VWS V14.00,2013-11-24 08:44:00,
2013-11-24 02:49:00,8.2,-1.1,30.45,SSE,161,6.0,14.0,65,0.00,,CLR,0.00,VWS V14.00,2013-11-24 08:49:00,
2013-11-24 02:54:00,8.2,-1.5,30.44,South,169,8.0,10.0,64,0.00,,CLR,0.00,VWS V14.00,2013-11-24 08:54:00,
2013-11-24 02:59:00,8.3,-1.0,30.44,South,170,4.0,11.0,65,0.00,,CLR,0.00,VWS V14.00,2013-11-24 08:59:00,
2013-11-24 03:04:00,8.4,-0.9,30.43,SSE,149,3.0,12.0,65,0.00,,CLR,0.00,VWS V14.00,2013-11-24 09:04:00,
2013-11-24 03:09:00,8.4,-0.9,30.43,SSE,163,3.0,12.0,65,0.00,,CLR,0.00,VWS V14.00,2013-11-24 09:09:00,
2013-11-24 03:14:00,8.4,-1.3,30.43,SSE,160,8.0,10.0,64,0.00,,CLR,0.00,VWS V14.00,2013-11-24 09:14:00,
2013-11-24 03:19:00,8.5,-0.8,30.43,SSE,154,7.0,12.0,65,0.00,,CLR,0.00,VWS V14.00,2013-11-24 09:19:00,
2013-11-24 03:24:00,8.5,-0.8,30.43,SSE,149,1.0,11.0,65,0.00,,CLR,0.00,VWS V14.00,2013-11-24 09:24:00,
2013-11-24 03:29:00,8.5,-0.8,30.42,SSE,148,4.0,11.0,65,0.00,,CLR,0.00,VWS V14.00,2013-11-24 09:29:00,
2013-11-24 03:34:00,8.6,-0.7,30.41,SSE,153,7.0,11.0,65,0.00,,CLR,0.00,VWS V14.00,2013-11-24 09:34:00,
2013-11-24 03:39:00,8.6,-0.7,30.40,SSE,157,5.0,13.0,65,0.00,,CLR,0.00,VWS V14.00,2013-11-24 09:39:00,
2013-11-24 03:44:00,8.7,-0.6,30.40,SSE,161,2.0,13.0,65,0.00,,CLR,0.00,VWS V14.00,2013-11-24 09:44:00,
2013-11-24 03:49:00,8.7,-0.6,30.39,SSE,162,5.0,13.0,65,0.00,,CLR,0.00,VWS V14.00,2013-11-24 09:49:00,
2013-11-24 03:54:00,8.8,-0.6,30.39,SSE,167,4.0,12.0,65,0.00,,CLR,0.00,VWS V14.00,2013-11-24 09:54:00,
2013-11-24 03:59:00,8.9,-0.4,30.39,SSE,166,8.0,12.0,65,0.00,,CLR,0.00,VWS V14.00,2013-11-24 09:59:00,
2013-11-24 04:04:00,9.0,-0.4,30.39,SSE,167,8.0,14.0,65,0.00,,CLR,0.00,VWS V14.00,2013-11-24 10:04:00,
2013-11-24 04:09:00,9.1,-0.3,30.38,SSE,164,8.0,14.0,65,0.00,,CLR,0.00,VWS V14.00,2013-11-24 10:09:00,
2013-11-24 04:14:00,9.2,-0.2,30.38,SSE,167,4.0,11.0,65,0.00,,CLR,0.00,VWS V14.00,2013-11-24 10:14:00,
2013-11-24 04:19:00,9.2,-0.5,30.38,SSE,164,3.0,12.0,64,0.00,,CLR,0.00,VWS V14.00,2013-11-24 10:19:00,
2013-11-24 04:24:00,9.2,-0.5,30.38,South,169,3.0,10.0,64,0.00,,CLR,0.00,VWS V14.00,2013-11-24 10:24:00,
2013-11-24 04:29:00,9.4,0.0,30.37,South,171,13.0,14.0,65,0.00,,CLR,0.00,VWS V14.00,2013-11-24 10:29:00,
2013-11-24 04:34:00,9.5,0.1,30.36,SSE,154,7.0,13.0,65,0.00,,CLR,0.00,VWS V14.00,2013-11-24 10:34:00,
2013-11-24 04:39:00,9.5,-0.2,30.36,SSE,158,6.0,13.0,64,0.00,,CLR,0.00,VWS V14.00,2013-11-24 10:39:00,
2013-11-24 04:44:00,9.6,-0.1,30.36,SSE,155,5.0,13.0,64,0.00,,CLR,0.00,VWS V14.00,2013-11-24 10:44:00,
2013-11-24 04:49:00,9.7,0.0,30.35,SSE,159,7.0,14.0,64,0.00,,CLR,0.00,VWS V14.00,2013-11-24 10:49:00,
2013-11-24 04:54:00,9.8,0.1,30.35,SSE,159,5.0,14.0,64,0.00,,CLR,0.00,VWS V14.00,2013-11-24 10:54:00,
2013-11-24 04:59:00,9.8,0.1,30.34,SSE,149,6.0,14.0,64,0.00,,CLR,0.00,VWS V14.00,2013-11-24 10:59:00,
2013-11-24 05:04:00,9.8,0.1,30.34,SSE,149,5.0,11.0,64,0.00,,CLR,0.00,VWS V14.00,2013-11-24 11:04:00,
2013-11-24 05:09:00,9.9,0.2,30.33,SSE,156,4.0,15.0,64,0.00,,CLR,0.00,VWS V14.00,2013-11-24 11:09:00,
2013-11-24 05:14:00,9.9,0.2,30.33,SSE,157,10.0,10.0,64,0.00,,CLR,0.00,VWS V14.00,2013-11-24 11:14:00,
2013-11-24 05:19:00,9.9,0.2,30.33,SSE,163,3.0,13.0,64,0.00,,CLR,0.00,VWS V14.00,2013-11-24 11:19:00,
2013-11-24 05:24:00,10.0,0.3,30.32,SSE,153,7.0,12.0,64,0.00,,CLR,0.00,VWS V14.00,2013-11-24 11:24:00,
2013-11-24 05:29:00,10.0,-0.1,30.32,SSE,155,6.0,14.0,63,0.00,,CLR,0.00,VWS V14.00,2013-11-24 11:29:00,
2013-11-24 05:34:00,10.0,0.3,30.32,SSE,159,9.0,14.0,64,0.00,,CLR,0.00,VWS V14.00,2013-11-24 11:34:00,
2013-11-24 05:39:00,10.1,0.4,30.31,SSE,149,4.0,15.0,64,0.00,,CLR,0.00,VWS V14.00,2013-11-24 11:39:00,
2013-11-24 05:44:00,10.2,0.1,30.30,SSE,147,8.0,13.0,63,0.00,,CLR,0.00,VWS V14.00,2013-11-24 11:44:00,
2013-11-24 05:49:00,10.3,0.2,30.30,SSE,158,4.0,14.0,63,0.00,,CLR,0.00,VWS V14.00,2013-11-24 11:49:00,
2013-11-24 05:54:00,10.4,0.3,30.30,SSE,165,11.0,14.0,63,0.00,,CLR,0.00,VWS V14.00,2013-11-24 11:54:00,
2013-11-24 05:59:00,10.5,0.4,30.30,SSE,154,3.0,14.0,63,0.00,,CLR,0.00,VWS V14.00,2013-11-24 11:59:00,
2013-11-24 06:04:00,10.5,0.4,30.29,SSE,152,15.0,15.0,63,0.00,,CLR,0.00,VWS V14.00,2013-11-24 12:04:00,
2013-11-24 06:09:00,10.5,0.4,30.29,SSE,159,5.0,15.0,63,0.00,,CLR,0.00,VWS V14.00,2013-11-24 12:09:00,
2013-11-24 06:14:00,10.5,0.4,30.28,SSE,167,8.0,14.0,63,0.00,,CLR,0.00,VWS V14.00,2013-11-24 12:14:00,
2013-11-24 06:19:00,10.6,0.5,30.28,SSE,157,10.0,14.0,63,0.00,,CLR,0.00,VWS V14.00,2013-11-24 12:19:00,
2013-11-24 06:24:00,10.6,0.5,30.28,South,172,5.0,14.0,63,0.00,,CLR,0.00,VWS V14.00,2013-11-24 12:24:00,
2013-11-24 06:30:00,10.6,0.5,30.27,SSE,161,3.0,15.0,63,0.00,,CLR,0.00,VWS V14.00,2013-11-24 12:30:00,
2013-11-24 06:35:00,10.7,0.6,30.27,SSE,162,12.0,16.0,63,0.00,,CLR,0.00,VWS V14.00,2013-11-24 12:35:00,
2013-11-24 06:40:00,10.9,0.8,30.27,SSE,157,9.0,16.0,63,0.00,,CLR,0.00,VWS V14.00,2013-11-24 12:40:00,
2013-11-24 06:45:00,10.8,1.0,30.27,SSE,157,7.0,20.0,64,0.00,,CLR,0.00,VWS V14.00,2013-11-24 12:45:00,
2013-11-24 06:50:00,11.0,0.9,30.26,SSE,158,4.0,20.0,63,0.00,,CLR,0.00,VWS V14.00,2013-11-24 12:50:00,
2013-11-24 06:55:00,11.0,1.2,30.26,SSE,168,11.0,13.0,64,0.00,,CLR,0.00,VWS V14.00,2013-11-24 12:55:00,
2013-11-24 07:00:00,11.1,1.3,30.25,South,169,2.0,17.0,64,0.00,,CLR,0.00,VWS V14.00,2013-11-24 13:00:00,
2013-11-24 07:05:00,11.1,1.0,30.25,SSE,153,2.0,14.0,63,0.00,,CLR,0.00,VWS V14.00,2013-11-24 13:05:00,
2013-11-24 07:10:00,11.2,1.4,30.24,SSE,156,5.0,8.0,64,0.00,,CLR,0.00,VWS V14.00,2013-11-24 13:10:00,
2013-11-24 07:15:00,11.3,1.5,30.24,SSE,157,6.0,16.0,64,0.00,,CLR,0.00,VWS V14.00,2013-11-24 13:15:00,
2013-11-24 07:20:00,11.3,1.5,30.23,South,170,8.0,11.0,64,0.00,,CLR,0.00,VWS V14.00,2013-11-24 13:20:00,
2013-11-24 07:25:00,11.4,1.6,30.22,SSE,148,4.0,18.0,64,0.00,,CLR,0.00,VWS V14.00,2013-11-24 13:25:00,
2013-11-24 07:30:00,11.4,1.6,30.22,South,177,8.0,8.0,64,0.00,,CLR,0.00,VWS V14.00,2013-11-24 13:30:00,
2013-11-24 07:35:00,11.5,1.7,30.22,SSE,156,11.0,19.0,64,0.00,,CLR,0.00,VWS V14.00,2013-11-24 13:35:00,
2013-11-24 07:40:00,11.5,1.7,30.22,SSE,165,6.0,8.0,64,0.00,,CLR,0.00,VWS V14.00,2013-11-24 13:40:00,
2013-11-24 07:45:00,11.6,1.8,30.22,South,181,3.0,16.0,64,0.00,,CLR,0.00,VWS V14.00,2013-11-24 13:45:00,
2013-11-24 07:50:00,11.7,1.9,30.21,SSE,157,9.0,11.0,64,0.00,,CLR,0.00,VWS V14.00,2013-11-24 13:50:00,
2013-11-24 07:55:00,11.7,1.9,30.21,SSE,147,10.0,17.0,64,0.00,,CLR,0.00,VWS V14.00,2013-11-24 13:55:00,
2013-11-24 08:00:00,11.7,1.9,30.20,SSE,152,9.0,16.0,64,0.00,,CLR,0.00,VWS V14.00,2013-11-24 14:00:00,
2013-11-24 08:05:00,11.8,2.0,30.19,SSE,160,16.0,18.0,64,0.00,,CLR,0.00,VWS V14.00,2013-11-24 14:05:00,
2013-11-24 08:10:00,11.9,2.1,30.19,SE,144,13.0,14.0,64,0.00,,CLR,0.00,VWS V14.00,2013-11-24 14:10:00,
2013-11-24 08:15:00,12.0,2.2,30.18,SSE,167,23.0,23.0,64,0.00,,CLR,0.00,VWS V14.00,2013-11-24 14:15:00,
2013-11-24 08:20:00,12.2,2.4,30.18,SSE,149,7.0,13.0,64,0.00,,CLR,0.00,VWS V14.00,2013-11-24 14:20:00,
2013-11-24 08:25:00,12.3,2.5,30.18,SSE,147,8.0,15.0,64,0.00,,CLR,0.00,VWS V14.00,2013-11-24 14:25:00,
2013-11-24 08:30:00,12.5,3.0,30.18,SE,145,7.0,12.0,65,0.00,,CLR,0.00,VWS V14.00,2013-11-24 14:30:00,
2013-11-24 08:35:00,12.7,2.8,30.17,South,186,19.0,19.0,64,0.00,,CLR,0.00,VWS V14.00,2013-11-24 14:35:00,
2013-11-24 08:40:00,12.9,3.0,30.17,SSE,167,16.0,16.0,64,0.00,,CLR,0.00,VWS V14.00,2013-11-24 14:40:00,
2013-11-24 08:45:00,13.1,3.2,30.17,SSE,168,6.0,18.0,64,0.00,,CLR,0.00,VWS V14.00,2013-11-24 14:45:00,
2013-11-24 08:50:00,13.4,3.5,30.17,SSE,158,7.0,12.0,64,0.00,,CLR,0.00,VWS V14.00,2013-11-24 14:50:00,
2013-11-24 08:55:00,13.8,3.9,30.16,SSE,165,8.0,19.0,64,0.00,,CLR,0.00,VWS V14.00,2013-11-24 14:55:00,
2013-11-24 09:00:00,14.1,4.2,30.16,South,177,7.0,14.0,64,0.00,,CLR,0.00,VWS V14.00,2013-11-24 15:00:00,
2013-11-24 09:05:00,14.4,4.5,30.15,South,176,11.0,17.0,64,0.00,,CLR,0.00,VWS V14.00,2013-11-24 15:05:00,
2013-11-24 09:10:00,14.7,4.8,30.14,SE,140,8.0,19.0,64,0.00,,CLR,0.00,VWS V14.00,2013-11-24 15:10:00,
2013-11-24 09:15:00,14.9,4.6,30.14,SSE,161,10.0,19.0,63,0.00,,CLR,0.00,VWS V14.00,2013-11-24 15:15:00,
2013-11-24 09:20:00,15.2,4.9,30.13,SSE,165,6.0,15.0,63,0.00,,CLR,0.00,VWS V14.00,2013-11-24 15:20:00,
2013-11-24 09:25:00,15.5,5.2,30.12,South,170,12.0,23.0,63,0.00,,CLR,0.00,VWS V14.00,2013-11-24 15:25:00,
2013-11-24 09:30:00,15.9,5.9,30.12,South,175,8.0,15.0,64,0.00,,CLR,0.00,VWS V14.00,2013-11-24 15:30:00,
2013-11-24 09:35:00,16.4,6.4,30.11,SE,146,11.0,18.0,64,0.00,,CLR,0.00,VWS V14.00,2013-11-24 15:35:00,
2013-11-24 09:40:00,16.9,6.5,30.11,SSE,164,9.0,18.0,63,0.00,,CLR,0.00,VWS V14.00,2013-11-24 15:40:00,
2013-11-24 09:45:00,17.3,7.2,30.11,SSE,154,13.0,20.0,64,0.00,,CLR,0.00,VWS V14.00,2013-11-24 15:45:00,
2013-11-24 09:50:00,17.6,7.2,30.11,South,189,12.0,14.0,63,0.00,,CLR,0.00,VWS V14.00,2013-11-24 15:50:00,
2013-11-24 09:55:00,17.9,7.4,30.10,South,177,7.0,19.0,63,0.00,,CLR,0.00,VWS V14.00,2013-11-24 15:55:00,
2013-11-24 10:00:00,18.2,7.7,30.10,South,172,7.0,13.0,63,0.00,,CLR,0.00,VWS V14.00,2013-11-24 16:00:00,
2013-11-24 10:05:00,18.5,8.0,30.10,SSE,167,18.0,19.0,63,0.00,,CLR,0.00,VWS V14.00,2013-11-24 16:05:00,
2013-11-24 10:10:00,18.9,8.4,30.09,South,181,6.0,13.0,63,0.00,,CLR,0.00,VWS V14.00,2013-11-24 16:10:00,
2013-11-24 10:15:00,19.6,9.1,30.09,SSE,167,6.0,17.0,63,0.00,,CLR,0.00,VWS V14.00,2013-11-24 16:15:00,
2013-11-24 10:20:00,20.1,9.5,30.09,South,170,8.0,19.0,63,0.00,,CLR,0.00,VWS V14.00,2013-11-24 16:20:00,
2013-11-24 10:25:00,20.6,10.0,30.09,South,178,13.0,24.0,63,0.00,,CLR,0.00,VWS V14.00,2013-11-24 16:25:00,
2013-11-24 10:31:00,21.3,10.7,30.08,South,177,5.0,11.0,63,0.00,,CLR,0.00,VWS V14.00,2013-11-24 16:31:00,
2013-11-24 10:36:00,21.9,11.2,30.07,SSE,166,15.0,21.0,63,0.00,,CLR,0.00,VWS V14.00,2013-11-24 16:36:00,
2013-11-24 10:41:00,22.3,11.6,30.06,SSE,156,0.0,16.0,63,0.00,,CLR,0.00,VWS V14.00,2013-11-24 16:41:00,
2013-11-24 10:46:00,22.6,11.6,30.06,SSE,168,14.0,22.0,62,0.00,,CLR,0.00,VWS V14.00,2013-11-24 16:46:00,
2013-11-24 10:51:00,23.0,12.3,30.05,SSE,155,13.0,14.0,63,0.00,,CLR,0.00,VWS V14.00,2013-11-24 16:51:00,
2013-11-24 10:56:00,23.7,12.6,30.05,South,179,11.0,19.0,62,0.00,,CLR,0.00,VWS V14.00,2013-11-24 16:56:00,
2013-11-24 11:01:00,24.2,13.1,30.04,SSW,205,15.0,18.0,62,0.00,,CLR,0.00,VWS V14.00,2013-11-24 17:01:00,
2013-11-24 11:06:00,24.5,13.0,30.04,SSW,203,3.0,24.0,61,0.00,,CLR,0.00,VWS V14.00,2013-11-24 17:06:00,
2013-11-24 11:11:00,24.5,13.0,30.03,South,173,6.0,15.0,61,0.00,,CLR,0.00,VWS V14.00,2013-11-24 17:11:00,
2013-11-24 11:16:00,24.5,13.4,30.03,SSW,192,3.0,20.0,62,0.00,,CLR,0.00,VWS V14.00,2013-11-24 17:16:00,
2013-11-24 11:21:00,25.2,14.0,30.02,South,176,9.0,17.0,62,0.00,,CLR,0.00,VWS V14.00,2013-11-24 17:21:00,
2013-11-24 11:26:00,26.0,14.4,30.01,South,173,9.0,17.0,61,0.00,,CLR,0.00,VWS V14.00,2013-11-24 17:26:00,
2013-11-24 11:31:00,26.7,15.1,30.00,South,189,14.0,16.0,61,0.00,,CLR,0.00,VWS V14.00,2013-11-24 17:31:00,
2013-11-24 11:36:00,27.2,15.2,29.99,South,172,20.0,23.0,60,0.00,,CLR,0.00,VWS V14.00,2013-11-24 17:36:00,
2013-11-24 11:41:00,27.4,15.4,29.99,South,176,15.0,15.0,60,0.00,,CLR,0.00,VWS V14.00,2013-11-24 17:41:00,
2013-11-24 11:46:00,27.5,15.4,29.98,South,169,7.0,22.0,60,0.00,,CLR,0.00,VWS V14.00,2013-11-24 17:46:00,
2013-11-24 11:51:00,27.6,15.6,29.98,SSE,156,10.0,19.0,60,0.00,,CLR,0.00,VWS V14.00,2013-11-24 17:51:00,
2013-11-24 11:56:00,28.3,16.2,29.98,South,178,5.0,19.0,60,0.00,,CLR,0.00,VWS V14.00,2013-11-24 17:56:00,
2013-11-24 12:01:00,28.9,16.8,29.98,SSE,165,11.0,11.0,60,0.00,,CLR,0.00,VWS V14.00,2013-11-24 18:01:00,
2013-11-24 12:06:00,29.4,16.9,29.97,SSE,162,7.0,24.0,59,0.00,,CLR,0.00,VWS V14.00,2013-11-24 18:06:00,
2013-11-24 12:11:00,29.5,17.0,29.96,South,173,0.0,6.0,59,0.00,,CLR,0.00,VWS V14.00,2013-11-24 18:11:00,
2013-11-24 12:16:00,29.8,17.2,29.96,South,189,7.0,25.0,59,0.00,,CLR,0.00,VWS V14.00,2013-11-24 18:16:00,
2013-11-24 12:21:00,30.2,17.6,29.96,South,178,13.0,19.0,59,0.00,,CLR,0.00,VWS V14.00,2013-11-24 18:21:00,
2013-11-24 12:26:00,30.5,17.5,29.96,South,178,1.0,19.0,58,0.00,,CLR,0.00,VWS V14.00,2013-11-24 18:26:00,
2013-11-24 12:31:00,30.6,17.6,29.95,SSE,157,11.0,19.0,58,0.00,,CLR,0.00,VWS V14.00,2013-11-24 18:31:00,
2013-11-24 12:36:00,30.8,18.2,29.95,SSE,166,4.0,19.0,59,0.00,,CLR,0.00,VWS V14.00,2013-11-24 18:36:00,
2013-11-24 12:41:00,31.1,18.5,29.95,South,175,14.0,15.0,59,0.00,,CLR,0.00,VWS V14.00,2013-11-24 18:41:00,
2013-11-24 12:46:00,31.6,18.9,29.95,South,184,1.0,15.0,59,0.00,,CLR,0.00,VWS V14.00,2013-11-24 18:46:00,
2013-11-24 12:51:00,32.2,19.5,29.95,SSW,200,0.0,11.0,59,0.00,,CLR,0.00,VWS V14.00,2013-11-24 18:51:00,
2013-11-24 12:56:00,32.6,19.5,29.95,South,184,6.0,11.0,58,0.00,,CLR,0.00,VWS V14.00,2013-11-24 18:56:00,
2013-11-24 13:01:00,32.9,19.8,29.95,SSE,152,0.0,0.0,58,0.00,,CLR,0.00,VWS V14.00,2013-11-24 19:01:00,
2013-11-24 13:06:00,33.3,20.1,29.94,South,175,4.0,15.0,58,0.00,,CLR,0.00,VWS V14.00,2013-11-24 19:06:00,
2013-11-24 13:11:00,33.7,20.1,29.94,South,174,0.0,5.0,57,0.00,,CLR,0.00,VWS V14.00,2013-11-24 19:11:00,
2013-11-24 13:16:00,34.2,20.6,29.95,South,174,0.0,7.0,57,0.00,,CLR,0.00,VWS V14.00,2013-11-24 19:16:00,
2013-11-24 13:21:00,34.6,21.0,29.94,South,190,0.0,4.0,57,0.00,,CLR,0.00,VWS V14.00,2013-11-24 19:21:00,
2013-11-24 13:26:00,34.9,20.8,29.94,South,174,0.0,11.0,56,0.00,,CLR,0.00,VWS V14.00,2013-11-24 19:26:00,
2013-11-24 13:31:00,35.2,21.1,29.93,South,176,3.0,14.0,56,0.00,,CLR,0.00,VWS V14.00,2013-11-24 19:31:00,
2013-11-24 13:36:00,35.4,21.3,29.93,South,186,0.0,14.0,56,0.00,,CLR,0.00,VWS V14.00,2013-11-24 19:36:00,
2013-11-24 13:41:00,35.7,21.6,29.92,South,189,2.0,8.0,56,0.00,,CLR,0.00,VWS V14.00,2013-11-24 19:41:00,
2013-11-24 13:46:00,36.0,21.8,29.92,South,188,0.0,9.0,56,0.00,,CLR,0.00,VWS V14.00,2013-11-24 19:46:00,
2013-11-24 13:51:00,36.3,22.1,29.91,South,182,1.0,2.0,56,0.00,,CLR,0.00,VWS V14.00,2013-11-24 19:51:00,
2013-11-24 13:56:00,36.6,22.0,29.91,South,186,3.0,7.0,55,0.00,,CLR,0.00,VWS V14.00,2013-11-24 19:56:00,
2013-11-24 14:01:00,36.9,21.8,29.91,South,183,2.0,9.0,54,0.00,,CLR,0.00,VWS V14.00,2013-11-24 20:01:00,
2013-11-24 14:06:00,37.5,21.5,29.91,SW,214,0.0,9.0,52,0.00,,CLR,0.00,VWS V14.00,2013-11-24 20:06:00,
2013-11-24 14:11:00,37.8,20.8,29.91,SSW,200,2.0,7.0,50,0.00,,CLR,0.00,VWS V14.00,2013-11-24 20:11:00,
2013-11-24 14:16:00,38.0,21.0,29.91,SSW,192,2.0,7.0,50,0.00,,CLR,0.00,VWS V14.00,2013-11-24 20:16:00,
2013-11-24 14:21:00,38.1,20.6,29.90,SSW,192,0.0,2.0,49,0.00,,CLR,0.00,VWS V14.00,2013-11-24 20:21:00,
2013-11-24 14:26:00,38.2,20.7,29.90,SSW,196,4.0,5.0,49,0.00,,CLR,0.00,VWS V14.00,2013-11-24 20:26:00,
2013-11-24 14:31:00,38.2,20.7,29.89,SSW,194,2.0,10.0,49,0.00,,CLR,0.00,VWS V14.00,2013-11-24 20:31:00,
2013-11-24 14:36:00,38.2,20.2,29.89,SSW,192,1.0,11.0,48,0.00,,CLR,0.00,VWS V14.00,2013-11-24 20:36:00,
2013-11-24 14:41:00,38.3,20.4,29.88,South,176,6.0,6.0,48,0.00,,CLR,0.00,VWS V14.00,2013-11-24 20:41:00,
2013-11-24 14:47:00,38.2,20.2,29.88,SSW,194,0.0,6.0,48,0.00,,CLR,0.00,VWS V14.00,2013-11-24 20:47:00,
2013-11-24 14:52:00,38.2,20.2,29.88,South,183,1.0,5.0,48,0.00,,CLR,0.00,VWS V14.00,2013-11-24 20:52:00,
2013-11-24 14:57:00,38.2,20.2,29.88,South,182,0.0,7.0,48,0.00,,CLR,0.00,VWS V14.00,2013-11-24 20:57:00,
2013-11-24 15:02:00,38.3,20.4,29.87,South,180,6.0,8.0,48,0.00,,CLR,0.00,VWS V14.00,2013-11-24 21:02:00,
2013-11-24 15:07:00,38.3,20.8,29.87,South,189,0.0,8.0,49,0.00,,CLR,0.00,VWS V14.00,2013-11-24 21:07:00,
2013-11-24 15:12:00,38.4,20.9,29.87,South,185,6.0,8.0,49,0.00,,CLR,0.00,VWS V14.00,2013-11-24 21:12:00,
2013-11-24 15:17:00,38.4,20.9,29.87,SSW,200,0.0,8.0,49,0.00,,CLR,0.00,VWS V14.00,2013-11-24 21:17:00,
2013-11-24 15:22:00,38.4,20.9,29.86,South,187,1.0,5.0,49,0.00,,CLR,0.00,VWS V14.00,2013-11-24 21:22:00,
2013-11-24 15:27:00,38.5,21.0,29.86,South,190,2.0,5.0,49,0.00,,CLR,0.00,VWS V14.00,2013-11-24 21:27:00,
2013-11-24 15:32:00,38.6,20.6,29.86,SSW,196,0.0,3.0,48,0.00,,CLR,0.00,VWS V14.00,2013-11-24 21:32:00,
2013-11-24 15:37:00,38.7,20.7,29.86,SSW,192,1.0,8.0,48,0.00,,CLR,0.00,VWS V14.00,2013-11-24 21:37:00,
2013-11-24 15:42:00,38.7,20.7,29.85,South,180,1.0,6.0,48,0.00,,CLR,0.00,VWS V14.00,2013-11-24 21:42:00,
2013-11-24 15:47:00,38.6,21.1,29.84,SSW,198,0.0,8.0,49,0.00,,CLR,0.00,VWS V14.00,2013-11-24 21:47:00,
2013-11-24 15:52:00,38.6,21.1,29.85,South,189,3.0,7.0,49,0.00,,CLR,0.00,VWS V14.00,2013-11-24 21:52:00,
2013-11-24 15:57:00,38.5,21.0,29.85,South,179,0.0,7.0,49,0.00,,CLR,0.00,VWS V14.00,2013-11-24 21:57:00,
2013-11-24 16:02:00,38.6,21.1,29.84,South,184,0.0,4.0,49,0.00,,BKN110,0.00,VWS V14.00,2013-11-24 22:02:00,
2013-11-24 16:07:00,38.6,21.6,29.84,SSW,192,7.0,7.0,50,0.00,,BKN110,0.00,VWS V14.00,2013-11-24 22:07:00,
2013-11-24 16:12:00,38.7,21.2,29.83,SSW,193,1.0,5.0,49,0.00,,BKN110,0.00,VWS V14.00,2013-11-24 22:12:00,
2013-11-24 16:17:00,38.8,21.3,29.84,SSW,192,3.0,7.0,49,0.00,,BKN110,0.00,VWS V14.00,2013-11-24 22:17:00,
2013-11-24 16:22:00,38.9,21.4,29.84,South,181,2.0,7.0,49,0.00,,BKN110,0.00,VWS V14.00,2013-11-24 22:22:00,
2013-11-24 16:27:00,39.0,21.5,29.85,SSW,193,0.0,7.0,49,0.00,,BKN110,0.00,VWS V14.00,2013-11-24 22:27:00,
2013-11-24 16:32:00,39.1,21.6,29.85,SSW,211,1.0,2.0,49,0.00,,BKN110,0.00,VWS V14.00,2013-11-24 22:32:00,
2013-11-24 16:37:00,39.3,21.3,29.86,SW,224,0.0,5.0,48,0.00,,BKN110,0.00,VWS V14.00,2013-11-24 22:37:00,
2013-11-24 16:42:00,39.6,21.5,29.87,WSW,242,0.0,3.0,48,0.00,,BKN110,0.00,VWS V14.00,2013-11-24 22:42:00,
2013-11-24 16:47:00,39.8,21.7,29.86,SW,233,0.0,8.0,48,0.00,,BKN110,0.00,VWS V14.00,2013-11-24 22:47:00,
2013-11-24 16:52:00,39.9,21.8,29.85,SSW,213,0.0,2.0,48,0.00,,BKN110,0.00,VWS V14.00,2013-11-24 22:52:00,
2013-11-24 16:57:00,39.8,21.7,29.85,SSW,211,0.0,2.0,48,0.00,,BKN110,0.00,VWS V14.00,2013-11-24 22:57:00,
2013-11-24 17:02:00,39.7,22.1,29.85,South,186,0.0,5.0,49,0.00,,OVC095,0.00,VWS V14.00,2013-11-24 23:02:00,
2013-11-24 17:07:00,39.7,22.1,29.84,South,187,1.0,5.0,49,0.00,,OVC095,0.00,VWS V14.00,2013-11-24 23:07:00,
2013-11-24 17:12:00,39.7,22.6,29.85,South,187,2.0,2.0,50,0.00,,OVC095,0.00,VWS V14.00,2013-11-24 23:12:00,
2013-11-24 17:17:00,39.7,22.1,29.85,South,186,0.0,5.0,49,0.00,,OVC095,0.00,VWS V14.00,2013-11-24 23:17:00,
2013-11-24 17:22:00,39.6,22.5,29.84,South,187,2.0,3.0,50,0.00,,OVC095,0.00,VWS V14.00,2013-11-24 23:22:00,
2013-11-24 17:27:00,39.5,22.4,29.84,South,186,0.0,6.0,50,0.00,,OVC095,0.00,VWS V14.00,2013-11-24 23:27:00,
2013-11-24 17:32:00,39.5,22.4,29.84,South,188,0.0,6.0,50,0.00,,OVC095,0.00,VWS V14.00,2013-11-24 23:32:00,
2013-11-24 17:37:00,39.5,22.4,29.85,SSW,200,0.0,6.0,50,0.00,,OVC095,0.00,VWS V14.00,2013-11-24 23:37:00,
2013-11-24 17:42:00,39.5,22.9,29.85,SSW,200,0.0,1.0,51,0.00,,OVC095,0.00,VWS V14.00,2013-11-24 23:42:00,
2013-11-24 17:47:00,39.6,22.5,29.85,SSW,201,0.0,3.0,50,0.00,,OVC095,0.00,VWS V14.00,2013-11-24 23:47:00,
2013-11-24 17:52:00,39.7,22.6,29.86,SSW,201,0.0,0.0,50,0.00,,OVC095,0.00,VWS V14.00,2013-11-24 23:52:00,
2013-11-24 17:57:00,39.7,22.6,29.86,SSW,204,0.0,2.0,50,0.00,,OVC095,0.00,VWS V14.00,2013-11-24 23:57:00,
2013-11-24 18:02:00,39.7,23.1,29.86,SSW,204,0.0,0.0,51,0.00,,OVC090,0.00,VWS V14.00,2013-11-25 00:02:00,
2013-11-24 18:07:00,39.7,23.1,29.85,SSW,204,0.0,0.0,51,0.00,,OVC090,0.00,VWS V14.00,2013-11-25 00:07:00,
2013-11-24 18:12:00,39.7,23.1,29.85,SSW,204,0.0,2.0,51,0.00,,OVC090,0.00,VWS V14.00,2013-11-25 00:12:00,
2013-11-24 18:17:00,39.7,23.5,29.85,SSW,204,0.0,2.0,52,0.00,,OVC090,0.00,VWS V14.00,2013-11-25 00:17:00,
2013-11-24 18:22:00,39.7,23.5,29.84,SSW,204,1.0,3.0,52,0.00,,OVC090,0.00,VWS V14.00,2013-11-25 00:22:00,
2013-11-24 18:27:00,39.8,23.6,29.84,SSW,204,0.0,3.0,52,0.00,,OVC090,0.00,VWS V14.00,2013-11-25 00:27:00,
2013-11-24 18:32:00,39.9,23.7,29.84,SSW,204,0.0,1.0,52,0.00,,OVC090,0.00,VWS V14.00,2013-11-25 00:32:00,
2013-11-24 18:37:00,40.2,23.5,29.83,SSW,204,1.0,3.0,51,0.00,,OVC090,0.00,VWS V14.00,2013-11-25 00:37:00,
2013-11-24 18:42:00,40.5,23.8,29.83,SSW,207,0.0,3.0,51,0.00,,OVC090,0.00,VWS V14.00,2013-11-25 00:42:00,
2013-11-24 18:47:00,40.9,24.2,29.83,WSW,239,1.0,7.0,51,0.00,,OVC090,0.00,VWS V14.00,2013-11-25 00:47:00,
2013-11-24 18:53:00,41.2,24.0,29.83,WSW,247,0.0,4.0,50,0.00,,OVC090,0.00,VWS V14.00,2013-11-25 00:53:00,
2013-11-24 18:58:00,41.3,24.1,29.83,SW,232,0.0,5.0,50,0.00,,OVC090,0.00,VWS V14.00,2013-11-25 00:58:00,
2013-11-24 19:03:00,41.4,24.2,29.83,WSW,253,0.0,5.0,50,0.00,,OVC090,0.00,VWS V14.00,2013-11-25 01:03:00,
2013-11-24 19:08:00,41.5,24.3,29.83,WSW,248,0.0,5.0,50,0.00,,OVC090,0.00,VWS V14.00,2013-11-25 01:08:00,
2013-11-24 19:13:00,41.6,24.8,29.82,WSW,242,0.0,5.0,51,0.00,,OVC090,0.00,VWS V14.00,2013-11-25 01:13:00,
2013-11-24 19:18:00,41.6,24.8,29.82,WSW,252,1.0,8.0,51,0.00,,OVC090,0.00,VWS V14.00,2013-11-25 01:18:00,
2013-11-24 19:23:00,41.6,25.3,29.82,WSW,238,5.0,5.0,52,0.00,,OVC090,0.00,VWS V14.00,2013-11-25 01:23:00,
2013-11-24 19:28:00,41.6,25.3,29.82,WSW,240,0.0,11.0,52,0.00,,OVC090,0.00,VWS V14.00,2013-11-25 01:28:00,
2013-11-24 19:33:00,41.7,24.9,29.82,WSW,255,4.0,9.0,51,0.00,,OVC090,0.00,VWS V14.00,2013-11-25 01:33:00,
2013-11-24 19:38:00,41.7,24.9,29.82,WSW,242,10.0,14.0,51,0.00,,OVC090,0.00,VWS V14.00,2013-11-25 01:38:00,
2013-11-24 19:43:00,41.8,25.0,29.82,SW,227,1.0,10.0,51,0.00,,OVC090,0.00,VWS V14.00,2013-11-25 01:43:00,
2013-11-24 19:48:00,41.8,25.0,29.82,WSW,249,7.0,10.0,51,0.00,,OVC090,0.00,VWS V14.00,2013-11-25 01:48:00,
2013-11-24 19:53:00,41.7,25.4,29.82,WSW,252,4.0,8.0,52,0.00,,OVC090,0.00,VWS V14.00,2013-11-25 01:53:00,
2013-11-24 19:58:00,41.7,25.4,29.82,WSW,254,4.0,11.0,52,0.00,,OVC090,0.00,VWS V14.00,2013-11-25 01:58:00,
2013-11-24 20:03:00,41.7,25.4,29.82,WSW,250,4.0,9.0,52,0.00,,OVC065,0.00,VWS V14.00,2013-11-25 02:03:00,
2013-11-24 20:08:00,41.7,25.4,29.82,WSW,248,2.0,9.0,52,0.00,,OVC065,0.00,VWS V14.00,2013-11-25 02:08:00,
2013-11-24 20:13:00,41.6,25.3,29.81,WSW,244,3.0,8.0,52,0.00,,OVC065,0.00,VWS V14.00,2013-11-25 02:13:00,
2013-11-24 20:18:00,41.6,25.3,29.81,WSW,248,7.0,12.0,52,0.00,,OVC065,0.00,VWS V14.00,2013-11-25 02:18:00,
2013-11-24 20:23:00,41.6,25.3,29.81,WSW,254,4.0,10.0,52,0.00,,OVC065,0.00,VWS V14.00,2013-11-25 02:23:00,
2013-11-24 20:28:00,41.6,25.3,29.81,West,263,6.0,10.0,52,0.00,,OVC065,0.00,VWS V14.00,2013-11-25 02:28:00,
2013-11-24 20:33:00,41.5,25.2,29.81,West,271,5.0,8.0,52,0.00,,OVC065,0.00,VWS V14.00,2013-11-25 02:33:00,
2013-11-24 20:38:00,41.3,25.5,29.81,WSW,256,3.0,12.0,53,0.00,,OVC065,0.00,VWS V14.00,2013-11-25 02:38:00,
2013-11-24 20:43:00,41.2,25.4,29.81,West,261,4.0,8.0,53,0.00,,OVC065,0.00,VWS V14.00,2013-11-25 02:43:00,
2013-11-24 20:48:00,41.1,25.3,29.81,WSW,245,3.0,9.0,53,0.00,,OVC065,0.00,VWS V14.00,2013-11-25 02:48:00,
2013-11-24 20:53:00,40.9,25.1,29.81,West,259,1.0,10.0,53,0.00,,OVC065,0.00,VWS V14.00,2013-11-25 02:53:00,
2013-11-24 20:58:00,40.7,25.4,29.81,West,266,2.0,11.0,54,0.00,,OVC065,0.00,VWS V14.00,2013-11-25 02:58:00,
2013-11-24 21:03:00,40.4,25.1,29.81,WSW,251,7.0,9.0,54,0.00,,BKN065,0.00,VWS V14.00,2013-11-25 03:03:00,
2013-11-24 21:08:00,40.3,25.0,29.81,West,265,7.0,10.0,54,0.00,,BKN065,0.00,VWS V14.00,2013-11-25 03:08:00,
2013-11-24 21:13:00,40.2,24.9,29.81,West,264,4.0,10.0,54,0.00,,BKN065,0.00,VWS V14.00,2013-11-25 03:13:00,
2013-11-24 21:18:00,40.0,25.1,29.81,WSW,258,6.0,12.0,55,0.00,,BKN065,0.00,VWS V14.00,2013-11-25 03:18:00,
2013-11-24 21:23:00,39.7,24.9,29.81,West,276,5.0,14.0,55,0.00,,BKN065,0.00,VWS V14.00,2013-11-25 03:23:00,
2013-11-24 21:28:00,39.5,25.1,29.81,West,265,5.0,14.0,56,0.00,,BKN065,0.00,VWS V14.00,2013-11-25 03:28:00,
2013-11-24 21:33:00,39.3,24.9,29.81,West,264,9.0,11.0,56,0.00,,BKN065,0.00,VWS V14.00,2013-11-25 03:33:00,
2013-11-24 21:38:00,39.1,25.2,29.80,WSW,251,8.0,14.0,57,0.00,,BKN065,0.00,VWS V14.00,2013-11-25 03:38:00,
2013-11-24 21:43:00,39.0,25.1,29.81,West,267,5.0,8.0,57,0.00,,BKN065,0.00,VWS V14.00,2013-11-25 03:43:00,
2013-11-24 21:48:00,38.8,24.9,29.81,WSW,255,0.0,13.0,57,0.00,,BKN065,0.00,VWS V14.00,2013-11-25 03:48:00,
2013-11-24 21:53:00,38.6,24.7,29.81,WSW,254,5.0,9.0,57,0.00,,BKN065,0.00,VWS V14.00,2013-11-25 03:53:00,
2013-11-24 21:58:00,38.3,24.8,29.81,WSW,256,1.0,11.0,58,0.00,,BKN065,0.00,VWS V14.00,2013-11-25 03:58:00,
2013-11-24 22:03:00,38.0,25.0,29.81,West,260,3.0,9.0,59,0.00,,CLR,0.00,VWS V14.00,2013-11-25 04:03:00,
2013-11-24 22:08:00,37.9,24.9,29.81,West,264,5.0,11.0,59,0.00,,CLR,0.00,VWS V14.00,2013-11-25 04:08:00,
2013-11-24 22:14:00,37.7,24.7,29.81,WSW,256,6.0,7.0,59,0.00,,CLR,0.00,VWS V14.00,2013-11-25 04:14:00,
2013-11-24 22:19:00,37.6,25.0,29.81,WSW,255,1.0,8.0,60,0.00,,CLR,0.00,VWS V14.00,2013-11-25 04:19:00,
2013-11-24 22:24:00,37.4,24.8,29.81,WSW,254,3.0,6.0,60,0.00,,CLR,0.00,VWS V14.00,2013-11-25 04:24:00,
2013-11-24 22:29:00,37.4,24.8,29.81,WSW,256,2.0,11.0,60,0.00,,CLR,0.00,VWS V14.00,2013-11-25 04:29:00,
2013-11-24 22:34:00,37.2,25.0,29.81,West,260,2.0,6.0,61,0.00,,CLR,0.00,VWS V14.00,2013-11-25 04:34:00,
2013-11-24 22:39:00,37.0,24.8,29.81,WSW,252,4.0,8.0,61,0.00,,CLR,0.00,VWS V14.00,2013-11-25 04:39:00,
2013-11-24 22:44:00,36.9,24.7,29.81,WSW,256,2.0,10.0,61,0.00,,CLR,0.00,VWS V14.00,2013-11-25 04:44:00,
2013-11-24 22:49:00,36.7,24.5,29.82,West,259,3.0,10.0,61,0.00,,CLR,0.00,VWS V14.00,2013-11-25 04:49:00,
2013-11-24 22:54:00,36.5,24.7,29.82,West,270,7.0,11.0,62,0.00,,CLR,0.00,VWS V14.00,2013-11-25 04:54:00,
2013-11-24 22:59:00,36.3,24.5,29.82,West,268,3.0,11.0,62,0.00,,CLR,0.00,VWS V14.00,2013-11-25 04:59:00,
2013-11-24 23:01:00,36.2,24.5,29.82,WSW,258,1.0,6.0,62,0.00,,CLR,0.00,VWS V14.00,2013-11-25 05:01:00,
2013-11-24 23:02:00,36.2,24.5,29.81,WSW,258,11.0,11.0,62,0.00,,CLR,0.00,VWS V14.00,2013-11-25 05:02:00,
2013-11-24 23:04:00,36.1,24.7,29.82,WSW,256,5.0,11.0,63,0.00,,CLR,0.00,VWS V14.00,2013-11-25 05:04:00,
2013-11-24 23:09:00,35.9,24.5,29.81,WSW,255,4.0,11.0,63,0.00,,CLR,0.00,VWS V14.00,2013-11-25 05:09:00,
2013-11-24 23:14:00,35.7,24.4,29.82,West,269,2.0,10.0,63,0.00,,CLR,0.00,VWS V14.00,2013-11-25 05:14:00,
2013-11-24 23:19:00,35.5,24.5,29.82,WSW,256,5.0,10.0,64,0.00,,CLR,0.00,VWS V14.00,2013-11-25 05:19:00,
2013-11-24 23:24:00,35.3,24.4,29.82,West,260,3.0,9.0,64,0.00,,CLR,0.00,VWS V14.00,2013-11-25 05:24:00,
2013-11-24 23:29:00,35.1,24.5,29.81,WSW,249,5.0,9.0,65,0.00,,CLR,0.00,VWS V14.00,2013-11-25 05:29:00,
2013-11-24 23:34:00,35.0,24.4,29.82,West,265,3.0,11.0,65,0.00,,CLR,0.00,VWS V14.00,2013-11-25 05:34:00,
2013-11-24 23:39:00,34.9,24.3,29.82,West,269,7.0,11.0,65,0.00,,CLR,0.00,VWS V14.00,2013-11-25 05:39:00,
2013-11-24 23:45:00,34.8,24.6,29.82,West,262,0.0,13.0,66,0.00,,CLR,0.00,VWS V14.00,2013-11-25 05:45:00,
2013-11-24 23:50:00,34.8,24.6,29.82,West,273,9.0,16.0,66,0.00,,CLR,0.00,VWS V14.00,2013-11-25 05:50:00,
2013-11-24 23:55:00,34.8,24.6,29.82,West,265,6.0,15.0,66,0.00,,CLR,0.00,VWS V14.00,2013-11-25 05:55:00,